Time;durP1;ratioP1;P1;durP2;ratioP2;P2;SDS_P1;SDS_P2;PMS_P1;PMS_P2;Temp;Humidity;BMP_temperature;BMP_pressure;BME280_temperature;BME280_humidity;BME280_pressure;Samples;Min_cycle;Max_cycle;Signal;HPM_P1;HPM_P2
2023/04/18 00:00:16;;;;;;;;;;;;;;;14.40;nan;102844.84;4985195;28;19922;-84
2023/04/18 00:02:42;;;;;;;;;;;;;;;14.38;nan;102846.97;4984255;28;19926;-85
2023/04/18 00:05:08;;;;;;;;;;;;;;;14.37;nan;102840.75;4985904;28;20296;-85
2023/04/18 00:07:36;;;;;;;;;;;;;;;14.35;nan;102845.50;4982030;28;19926;-84
2023/04/18 00:10:03;;;;;;;;;;;;;;;14.34;nan;102843.03;4979555;28;20540;-84
2023/04/18 00:12:28;;;;;;;;;;;;;;;14.34;nan;102846.56;4983355;28;19921;-84
2023/04/18 00:14:53;;;;;;;;;;;;;;;14.33;nan;102846.78;4985088;28;19921;-84
2023/04/18 00:17:19;;;;;;;;;;;;;;;14.33;nan;102849.47;4983849;28;19918;-84
2023/04/18 00:19:45;;;;;;;;;;;;;;;14.34;nan;102840.34;4977665;28;19925;-84
2023/04/18 00:22:12;;;;;;;;;;;;;;;14.33;nan;102847.59;4981407;28;19924;-84
2023/04/18 00:24:37;;;;;;;;;;;;;;;14.35;nan;102847.38;4983504;28;19918;-84
2023/04/18 00:27:03;;;;;;;;;;;;;;;14.36;nan;102843.63;4986823;28;20338;-84
2023/04/18 00:29:30;;;;;;;;;;;;;;;14.36;nan;102843.63;4979088;28;19973;-83
2023/04/18 00:31:56;;;;;;;;;;;;;;;14.36;nan;102844.47;4979974;28;19918;-85
2023/04/18 00:34:21;;;;;;;;;;;;;;;14.35;nan;102841.97;4980475;28;19925;-84
2023/04/18 00:36:46;;;;;;;;;;;;;;;14.34;nan;102845.72;4983543;28;19928;-84
2023/04/18 00:39:11;;;;;;;;;;;;;;;14.32;nan;102848.66;4984297;28;19925;-85
2023/04/18 00:41:37;;;;;;;;;;;;;;;14.30;nan;102839.13;4977814;28;19929;-85
2023/04/18 00:44:02;;;;;;;;;;;;;;;14.31;nan;102840.78;4980370;28;19918;-84
2023/04/18 00:46:28;;;;;;;;;;;;;;;14.29;nan;102842.88;4982159;28;19922;-84
2023/04/18 00:48:53;;;;;;;;;;;;;;;14.27;nan;102839.59;4982273;28;19925;-85
2023/04/18 00:51:20;;;;;;;;;;;;;;;14.24;nan;102840.84;4980197;28;19926;-84
2023/04/18 00:53:45;;;;;;;;;;;;;;;14.24;nan;102837.34;4978300;28;20060;-84
2023/04/18 00:56:11;;;;;;;;;;;;;;;14.20;nan;102837.78;4985276;28;20132;-84
2023/04/18 00:58:36;;;;;;;;;;;;;;;14.21;nan;102846.69;4981001;28;21254;-84
2023/04/18 01:01:01;;;;;;;;;;;;;;;14.20;nan;102845.03;4984327;28;20019;-83
2023/04/18 01:03:27;;;;;;;;;;;;;;;14.19;nan;102846.09;4980956;28;19926;-84
2023/04/18 01:05:53;;;;;;;;;;;;;;;14.20;nan;102845.03;4978694;28;20335;-84
2023/04/18 01:08:20;;;;;;;;;;;;;;;14.22;nan;102845.66;4984835;28;19922;-84
2023/04/18 01:10:46;;;;;;;;;;;;;;;14.18;nan;102837.19;4981210;28;20383;-84
2023/04/18 01:13:14;;;;;;;;;;;;;;;14.19;nan;102841.53;4985012;28;19918;-84
2023/04/18 01:15:43;;;;;;;;;;;;;;;14.17;nan;102851.69;4975781;28;19922;-84
2023/04/18 01:18:09;;;;;;;;;;;;;;;14.17;nan;102840.91;4975426;28;20268;-84
2023/04/18 01:20:37;;;;;;;;;;;;;;;14.15;nan;102839.47;4979827;28;19930;-85
2023/04/18 01:23:02;;;;;;;;;;;;;;;14.12;nan;102842.63;4980747;28;19929;-84
2023/04/18 01:25:27;;;;;;;;;;;;;;;14.10;nan;102845.53;4978083;28;19926;-84
2023/04/18 01:27:53;;;;;;;;;;;;;;;14.11;nan;102846.34;4978606;28;20069;-84
2023/04/18 01:30:19;;;;;;;;;;;;;;;14.13;nan;102845.09;4979461;28;19964;-84
2023/04/18 01:32:44;;;;;;;;;;;;;;;14.16;nan;102849.22;4983282;28;19925;-85
2023/04/18 01:35:10;;;;;;;;;;;;;;;14.16;nan;102844.63;4983103;28;20331;-85
2023/04/18 01:37:35;;;;;;;;;;;;;;;14.14;nan;102844.03;4978270;28;20012;-84
2023/04/18 01:40:01;;;;;;;;;;;;;;;14.14;nan;102844.03;4981827;28;19929;-84
2023/04/18 01:42:26;;;;;;;;;;;;;;;14.13;nan;102850.47;4982236;28;19937;-84
2023/04/18 01:44:51;;;;;;;;;;;;;;;14.14;nan;102852.13;4981609;28;19929;-84
2023/04/18 01:47:17;;;;;;;;;;;;;;;14.12;nan;102848.81;4981475;28;20008;-85
2023/04/18 01:49:46;;;;;;;;;;;;;;;14.12;nan;102851.53;4979135;28;19967;-84
2023/04/18 01:52:13;;;;;;;;;;;;;;;14.11;nan;102847.19;4981044;28;19928;-84
2023/04/18 01:54:38;;;;;;;;;;;;;;;14.10;nan;102844.72;4980766;28;19929;-84
2023/04/18 01:57:04;;;;;;;;;;;;;;;14.08;nan;102850.31;4985482;28;19918;-84
2023/04/18 01:59:29;;;;;;;;;;;;;;;14.06;nan;102838.13;4979368;28;19925;-83
2023/04/18 02:01:55;;;;;;;;;;;;;;;14.07;nan;102845.16;4978394;28;19926;-85
2023/04/18 02:04:20;;;;;;;;;;;;;;;14.04;nan;102846.41;4983833;28;19918;-85
2023/04/18 02:10:42;;;;;;;;;;;;;;;14.01;nan;102838.78;4950859;28;19948;-84
2023/04/18 02:14:05;;;;;;;;;;;;;;;13.99;nan;102835.47;4934706;28;20430;-85
2023/04/18 02:16:58;;;;;;;;;;;;;;;13.99;nan;102840.03;4923417;28;19932;-84
2023/04/18 02:20:14;;;;;;;;;;;;;;;13.99;nan;102838.16;4945684;28;19930;-84
2023/04/18 02:26:28;;;;;;;;;;;;;;;14.02;nan;102831.53;4940095;28;20217;-84
2023/04/18 02:29:01;;;;;;;;;;;;;;;13.98;nan;102831.09;4953194;28;19922;-84
2023/04/18 02:32:10;;;;;;;;;;;;;;;13.96;nan;102832.38;4944734;28;19988;-84
2023/04/18 02:35:18;;;;;;;;;;;;;;;13.92;nan;102834.69;4945318;28;19929;-85
2023/04/18 02:53:53;;;;;;;;;;;;;;;13.84;nan;102840.38;4996705;28;19940;-85
2023/04/18 02:56:41;;;;;;;;;;;;;;;13.82;nan;102842.44;4924837;28;19925;-84
2023/04/18 02:59:29;;;;;;;;;;;;;;;13.82;nan;102837.03;4961295;28;19926;-84
2023/04/18 03:05:30;;;;;;;;;;;;;;;13.75;nan;102847.88;4958439;28;19928;-84
2023/04/18 03:20:39;;;;;;;;;;;;;;;13.73;nan;102838.38;4972956;28;19976;-83
2023/04/18 03:29:51;;;;;;;;;;;;;;;13.70;nan;102836.94;4882342;29;19971;-82
2023/04/18 03:36:06;;;;;;;;;;;;;;;13.65;nan;102838.66;4891809;29;19934;-83
2023/04/18 03:51:31;;;;;;;;;;;;;;;13.49;nan;102843.50;4896789;29;20479;-82
2023/04/18 03:57:28;;;;;;;;;;;;;;;13.43;nan;102849.72;4857337;29;19942;-82
2023/04/18 04:00:23;;;;;;;;;;;;;;;13.42;nan;102845.38;4885595;29;19932;-83
2023/04/18 04:06:01;;;;;;;;;;;;;;;13.33;nan;102852.09;4883290;29;20103;-82
2023/04/18 04:08:27;;;;;;;;;;;;;;;13.32;nan;102861.19;4906421;28;19927;-83
2023/04/18 04:10:52;;;;;;;;;;;;;;;13.28;nan;102857.25;4993630;28;20271;-83
2023/04/18 04:13:20;;;;;;;;;;;;;;;13.23;nan;102854.41;4994313;28;19921;-82
2023/04/18 04:15:46;;;;;;;;;;;;;;;13.22;nan;102858.13;4994955;28;19948;-82
2023/04/18 04:18:11;;;;;;;;;;;;;;;13.21;nan;102859.16;4997376;28;19917;-82
2023/04/18 04:20:37;;;;;;;;;;;;;;;13.20;nan;102857.53;4999559;28;19922;-83
2023/04/18 04:23:02;;;;;;;;;;;;;;;13.19;nan;102858.56;4999446;28;19929;-82
2023/04/18 04:25:28;;;;;;;;;;;;;;;13.19;nan;102872.03;4996748;28;19928;-82
2023/04/18 04:27:53;;;;;;;;;;;;;;;13.18;nan;102873.06;4995392;28;19932;-83
2023/04/18 04:30:19;;;;;;;;;;;;;;;13.16;nan;102870.56;4997013;28;19989;-82
2023/04/18 04:32:46;;;;;;;;;;;;;;;13.15;nan;102876.97;5001607;28;20395;-82
2023/04/18 04:35:11;;;;;;;;;;;;;;;13.15;nan;102874.28;4996966;28;19922;-83
2023/04/18 04:37:37;;;;;;;;;;;;;;;13.11;nan;102881.16;4998332;28;19940;-82
2023/04/18 04:40:07;;;;;;;;;;;;;;;13.11;nan;102874.94;4993947;28;19933;-82
2023/04/18 04:42:34;;;;;;;;;;;;;;;13.12;nan;102879.28;4996325;28;19937;-83
2023/04/18 04:45:01;;;;;;;;;;;;;;;13.12;nan;102873.91;4994157;28;19918;-82
2023/04/18 04:47:27;;;;;;;;;;;;;;;13.13;nan;102876.38;4996230;28;19948;-82
2023/04/18 04:49:52;;;;;;;;;;;;;;;13.15;nan;102876.16;4994611;28;19921;-83
2023/04/18 04:52:17;;;;;;;;;;;;;;;13.15;nan;102879.66;4999341;28;20400;-82
2023/04/18 04:54:44;;;;;;;;;;;;;;;13.19;nan;102874.72;4994945;28;19922;-83
2023/04/18 04:57:10;;;;;;;;;;;;;;;13.21;nan;102878.00;4994656;28;19921;-82
2023/04/18 04:59:35;;;;;;;;;;;;;;;13.23;nan;102884.00;4989935;28;19933;-83
2023/04/18 05:02:00;;;;;;;;;;;;;;;13.25;nan;102882.75;4995359;28;20022;-82
2023/04/18 05:04:26;;;;;;;;;;;;;;;13.28;nan;102878.78;4999025;28;20470;-82
2023/04/18 05:06:51;;;;;;;;;;;;;;;13.29;nan;102881.31;4998049;28;19922;-83
2023/04/18 05:09:17;;;;;;;;;;;;;;;13.27;nan;102890.59;4994128;28;19944;-82
2023/04/18 05:11:42;;;;;;;;;;;;;;;13.25;nan;102888.13;4992775;28;19921;-83
2023/04/18 05:14:07;;;;;;;;;;;;;;;13.28;nan;102889.56;4994503;28;19921;-83
2023/04/18 05:16:33;;;;;;;;;;;;;;;13.31;nan;102886.47;4996872;28;20380;-83
2023/04/18 05:18:58;;;;;;;;;;;;;;;13.34;nan;102893.28;4995036;28;19917;-82
2023/04/18 05:21:24;;;;;;;;;;;;;;;13.34;nan;102894.13;4990124;28;19949;-82
2023/04/18 05:23:50;;;;;;;;;;;;;;;13.35;nan;102892.25;4993967;28;20372;-82
2023/04/18 05:26:15;;;;;;;;;;;;;;;13.37;nan;102896.38;4995986;28;19929;-83
2023/04/18 05:28:41;;;;;;;;;;;;;;;13.41;nan;102894.91;5000251;28;19922;-83
2023/04/18 05:31:06;;;;;;;;;;;;;;;13.44;nan;102894.47;4997864;28;20469;-82
2023/04/18 05:33:32;;;;;;;;;;;;;;;13.47;nan;102885.16;4994344;28;19936;-82
2023/04/18 05:35:57;;;;;;;;;;;;;;;13.52;nan;102886.16;4997133;28;19972;-82
2023/04/18 05:38:23;;;;;;;;;;;;;;;13.58;nan;102885.28;4996193;28;19944;-82
2023/04/18 05:40:54;;;;;;;;;;;;;;;13.65;nan;102887.13;4995830;28;19980;-83
2023/04/18 05:43:19;;;;;;;;;;;;;;;13.68;nan;102884.00;4993199;28;19922;-83
2023/04/18 05:45:45;;;;;;;;;;;;;;;13.73;nan;102893.06;4994181;28;19940;-83
2023/04/18 05:48:11;;;;;;;;;;;;;;;13.82;nan;102893.63;4995160;28;19921;-83
2023/04/18 05:50:39;;;;;;;;;;;;;;;13.84;nan;102892.38;4994167;28;20019;-83
2023/04/18 05:53:04;;;;;;;;;;;;;;;13.87;nan;102896.50;4992551;28;19921;-83
2023/04/18 05:55:30;;;;;;;;;;;;;;;13.86;nan;102894.88;4990137;28;20180;-83
2023/04/18 05:57:55;;;;;;;;;;;;;;;13.90;nan;102902.28;4990943;28;19926;-82
2023/04/18 06:00:20;;;;;;;;;;;;;;;13.94;nan;102899.16;4989157;28;19914;-82
2023/04/18 06:02:46;;;;;;;;;;;;;;;13.95;nan;102888.16;4993709;28;19929;-83
2023/04/18 06:05:11;;;;;;;;;;;;;;;13.97;nan;102899.53;4991923;28;19924;-82
2023/04/18 06:07:37;;;;;;;;;;;;;;;14.01;nan;102890.00;4989608;28;19921;-83
2023/04/18 06:10:06;;;;;;;;;;;;;;;14.04;nan;102891.41;4990728;28;19960;-83
2023/04/18 06:12:32;;;;;;;;;;;;;;;14.06;nan;102892.84;4988768;28;19965;-83
2023/04/18 06:14:57;;;;;;;;;;;;;;;14.10;nan;102890.53;4996466;28;19925;-83
2023/04/18 06:17:23;;;;;;;;;;;;;;;14.13;nan;102890.09;4991352;28;19988;-83
2023/04/18 06:19:48;;;;;;;;;;;;;;;14.16;nan;102893.16;4991174;28;19936;-83
2023/04/18 06:22:13;;;;;;;;;;;;;;;14.21;nan;102893.34;4992377;28;19922;-83
2023/04/18 06:24:39;;;;;;;;;;;;;;;14.26;nan;102898.06;4995639;28;19964;-83
2023/04/18 06:27:04;;;;;;;;;;;;;;;14.32;nan;102896.34;4991632;28;19926;-83
2023/04/18 06:29:32;;;;;;;;;;;;;;;14.34;nan;102900.47;4994849;28;19964;-83
2023/04/18 06:31:57;;;;;;;;;;;;;;;14.37;nan;102900.06;4991380;28;19918;-83
2023/04/18 06:34:22;;;;;;;;;;;;;;;14.43;nan;102903.75;4989701;28;20388;-83
2023/04/18 06:36:48;;;;;;;;;;;;;;;14.51;nan;102906.19;4992096;28;19921;-82
2023/04/18 06:39:13;;;;;;;;;;;;;;;14.59;nan;102908.59;4994109;28;19918;-83
2023/04/18 06:41:38;;;;;;;;;;;;;;;14.66;nan;102906.66;4989346;28;20413;-83
2023/04/18 06:44:04;;;;;;;;;;;;;;;14.73;nan;102909.31;4983941;28;20475;-83
2023/04/18 06:46:29;;;;;;;;;;;;;;;14.82;nan;102908.78;4991712;28;19917;-82
2023/04/18 06:48:55;;;;;;;;;;;;;;;14.93;nan;102909.09;4993060;28;19979;-83
2023/04/18 06:51:20;;;;;;;;;;;;;;;14.97;nan;102910.28;4992322;28;19918;-83
2023/04/18 06:53:46;;;;;;;;;;;;;;;15.01;nan;102908.78;4993860;28;20046;-83
2023/04/18 06:56:12;;;;;;;;;;;;;;;15.04;nan;102914.56;4987228;28;19949;-82
2023/04/18 06:58:37;;;;;;;;;;;;;;;15.09;nan;102913.91;4989293;28;19929;-83
2023/04/18 07:01:03;;;;;;;;;;;;;;;15.14;nan;102913.22;4988440;28;20519;-83
2023/04/18 07:03:28;;;;;;;;;;;;;;;15.15;nan;102918.38;4988883;28;19921;-82
2023/04/18 07:05:54;;;;;;;;;;;;;;;15.18;nan;102917.94;4991011;28;20398;-83
2023/04/18 07:08:19;;;;;;;;;;;;;;;15.14;nan;102918.63;4984443;28;19918;-83
2023/04/18 07:10:45;;;;;;;;;;;;;;;15.14;nan;102911.34;4989146;28;20025;-82
2023/04/18 07:13:10;;;;;;;;;;;;;;;15.19;nan;102913.34;4986774;28;19922;-83
2023/04/18 07:15:35;;;;;;;;;;;;;;;15.20;nan;102921.22;4989548;28;20329;-83
2023/04/18 07:18:01;;;;;;;;;;;;;;;15.22;nan;102915.59;4999299;28;19918;-83
2023/04/18 07:20:26;;;;;;;;;;;;;;;15.22;nan;102921.81;4991948;28;20029;-83
2023/04/18 07:22:52;;;;;;;;;;;;;;;15.24;nan;102922.41;4991299;28;21583;-83
2023/04/18 07:25:18;;;;;;;;;;;;;;;15.26;nan;102930.28;4997438;28;19971;-83
2023/04/18 07:27:43;;;;;;;;;;;;;;;15.25;nan;102934.03;4992704;28;19924;-83
2023/04/18 07:30:09;;;;;;;;;;;;;;;15.22;nan;102927.22;4990577;28;19973;-83
2023/04/18 07:32:34;;;;;;;;;;;;;;;15.23;nan;102926.16;4998056;28;19949;-82
2023/04/18 07:35:00;;;;;;;;;;;;;;;15.24;nan;102925.13;4993834;28;19970;-83
2023/04/18 07:37:25;;;;;;;;;;;;;;;15.25;nan;102926.75;4991155;28;19927;-82
2023/04/18 07:39:51;;;;;;;;;;;;;;;15.27;nan;102927.38;4994375;28;19917;-83
2023/04/18 07:42:16;;;;;;;;;;;;;;;15.33;nan;102915.66;4992475;28;19957;-83
2023/04/18 07:44:42;;;;;;;;;;;;;;;15.36;nan;102926.00;4998865;28;19932;-83
2023/04/18 07:47:09;;;;;;;;;;;;;;;15.42;nan;102927.78;4994766;28;19922;-83
2023/04/18 07:49:34;;;;;;;;;;;;;;;15.48;nan;102925.25;5000280;28;19922;-84
2023/04/18 07:51:59;;;;;;;;;;;;;;;15.55;nan;102923.28;5000113;28;20080;-84
2023/04/18 07:54:25;;;;;;;;;;;;;;;15.61;nan;102931.31;5000813;28;19918;-83
2023/04/18 07:56:50;;;;;;;;;;;;;;;15.70;nan;102932.66;5001355;28;19918;-83
2023/04/18 07:59:15;;;;;;;;;;;;;;;15.79;nan;102924.22;5000738;28;20457;-83
2023/04/18 08:01:41;;;;;;;;;;;;;;;15.88;nan;102922.84;5003945;28;19922;-83
2023/04/18 08:04:06;;;;;;;;;;;;;;;15.99;nan;102920.19;4995253;28;19930;-83
2023/04/18 08:06:33;;;;;;;;;;;;;;;16.14;nan;102927.00;4991029;28;19956;-82
2023/04/18 08:09:02;;;;;;;;;;;;;;;16.30;nan;102934.47;4990321;28;19963;-83
2023/04/18 08:11:27;;;;;;;;;;;;;;;16.44;nan;102927.78;4988784;28;19929;-83
2023/04/18 08:13:52;;;;;;;;;;;;;;;16.57;nan;102929.44;4987153;28;19925;-83
2023/04/18 08:16:18;;;;;;;;;;;;;;;16.67;nan;102929.69;4991474;28;20368;-83
2023/04/18 08:18:43;;;;;;;;;;;;;;;16.75;nan;102934.75;4986612;28;19921;-83
2023/04/18 08:21:11;;;;;;;;;;;;;;;16.81;nan;102935.69;4993829;28;20348;-83
2023/04/18 08:23:36;;;;;;;;;;;;;;;16.86;nan;102936.63;4990440;28;19926;-83
2023/04/18 08:26:02;;;;;;;;;;;;;;;16.92;nan;102937.56;4991556;28;19921;-82
2023/04/18 08:28:27;;;;;;;;;;;;;;;17.01;nan;102932.59;4987346;28;19921;-83
2023/04/18 08:30:55;;;;;;;;;;;;;;;17.10;nan;102932.00;4984955;28;19918;-83
2023/04/18 08:33:20;;;;;;;;;;;;;;;17.19;nan;102933.25;4985070;28;19921;-83
2023/04/18 08:35:46;;;;;;;;;;;;;;;17.26;nan;102937.75;4987933;28;20325;-83
2023/04/18 08:38:12;;;;;;;;;;;;;;;17.32;nan;102926.75;4991650;28;19922;-83
2023/04/18 08:40:37;;;;;;;;;;;;;;;17.45;nan;102936.50;4983011;28;19934;-83
2023/04/18 08:43:06;;;;;;;;;;;;;;;17.59;nan;102935.13;4995203;28;19989;-83
2023/04/18 08:45:32;;;;;;;;;;;;;;;17.72;nan;102931.34;4979817;28;19922;-83
2023/04/18 08:48:00;;;;;;;;;;;;;;;17.88;nan;102936.00;4983320;28;20029;-83
2023/04/18 08:50:26;;;;;;;;;;;;;;;17.99;nan;102934.28;4985045;28;19921;-83
2023/04/18 08:52:53;;;;;;;;;;;;;;;18.09;nan;102929.03;4983438;28;19961;-83
2023/04/18 08:55:21;;;;;;;;;;;;;;;18.20;nan;102930.84;4985880;28;20376;-83
2023/04/18 08:57:53;;;;;;;;;;;;;;;18.32;nan;102931.59;4983487;28;20411;-82
2023/04/18 09:00:19;;;;;;;;;;;;;;;18.38;nan;102927.88;4988619;28;19918;-82
2023/04/18 09:02:45;;;;;;;;;;;;;;;18.45;nan;102933.13;4985477;28;19925;-82
2023/04/18 09:05:18;;;;;;;;;;;;;;;18.56;nan;102928.69;4988776;28;20315;-83
2023/04/18 09:07:44;;;;;;;;;;;;;;;18.70;nan;102936.28;4986441;28;20379;-83
2023/04/18 09:10:09;;;;;;;;;;;;;;;18.87;nan;102933.53;4987942;28;19964;-83
2023/04/18 09:12:51;;;;;;;;;;;;;;;19.01;nan;102925.81;4982150;28;20038;-83
2023/04/18 09:15:21;;;;;;;;;;;;;;;19.08;nan;102925.66;4984126;28;19945;-82
2023/04/18 09:17:52;;;;;;;;;;;;;;;19.17;nan;102935.00;4994668;23;20012;-85
2023/04/18 09:20:36;;;;;;;;;;;;;;;19.24;nan;102930.19;4985222;28;19932;-86
2023/04/18 09:23:09;;;;;;;;;;;;;;;19.29;nan;102932.97;4981529;28;20173;-84
2023/04/18 09:25:36;;;;;;;;;;;;;;;19.35;nan;102922.97;4984169;28;19917;-83
2023/04/18 09:28:03;;;;;;;;;;;;;;;19.47;nan;102927.19;4986167;28;19913;-84
2023/04/18 09:30:33;;;;;;;;;;;;;;;19.61;nan;102925.75;4988003;28;19917;-84
2023/04/18 09:33:00;;;;;;;;;;;;;;;19.83;nan;102927.59;4989337;28;20508;-84
2023/04/18 09:35:25;;;;;;;;;;;;;;;20.12;nan;102922.72;4988287;28;20391;-84
2023/04/18 09:37:51;;;;;;;;;;;;;;;20.35;nan;102924.25;4974979;28;19925;-85
2023/04/18 09:40:17;;;;;;;;;;;;;;;20.51;nan;102913.22;4983180;28;20078;-85
2023/04/18 09:42:43;;;;;;;;;;;;;;;20.65;nan;102910.88;4980711;28;20379;-84
2023/04/18 09:45:09;;;;;;;;;;;;;;;20.71;nan;102911.72;4974290;28;19918;-84
2023/04/18 09:47:35;;;;;;;;;;;;;;;20.75;nan;102902.72;4981102;28;20383;-84
2023/04/18 09:50:02;;;;;;;;;;;;;;;20.77;nan;102900.56;4978098;28;20002;-85
2023/04/18 09:52:31;;;;;;;;;;;;;;;20.84;nan;102902.25;4980728;28;20360;-84
2023/04/18 09:54:58;;;;;;;;;;;;;;;20.91;nan;102905.53;4976904;28;20024;-86
2023/04/18 09:57:27;;;;;;;;;;;;;;;21.03;nan;102896.06;4977521;28;20513;-86
2023/04/18 10:00:15;;;;;;;;;;;;;;;21.18;nan;102906.19;4980414;28;19930;-84
2023/04/18 10:02:56;;;;;;;;;;;;;;;21.30;nan;102895.91;4978694;28;19953;-85
2023/04/18 10:05:24;;;;;;;;;;;;;;;21.37;nan;102899.22;4982763;28;19992;-86
2023/04/18 10:07:49;;;;;;;;;;;;;;;21.42;nan;102909.31;4979478;28;19975;-86
2023/04/18 10:10:15;;;;;;;;;;;;;;;21.50;nan;102902.50;4979740;28;20391;-85
2023/04/18 10:12:41;;;;;;;;;;;;;;;21.47;nan;102898.41;4982097;28;19977;-84
2023/04/18 10:15:07;;;;;;;;;;;;;;;21.45;nan;102900.59;4983255;28;19980;-86
2023/04/18 10:17:51;;;;;;;;;;;;;;;21.43;nan;102900.03;4981474;28;20295;-85
2023/04/18 10:20:19;;;;;;;;;;;;;;;21.41;nan;102905.75;4978188;28;20445;-85
2023/04/18 10:22:44;;;;;;;;;;;;;;;21.39;nan;102902.50;4973816;28;20024;-86
2023/04/18 10:25:10;;;;;;;;;;;;;;;21.35;nan;102897.81;4983209;28;20407;-86
2023/04/18 10:27:47;;;;;;;;;;;;;;;21.32;nan;102896.44;4979193;28;20485;-85
2023/04/18 10:30:13;;;;;;;;;;;;;;;21.31;nan;102896.72;4978676;28;19947;-84
2023/04/18 10:32:39;;;;;;;;;;;;;;;21.31;nan;102894.81;4982618;28;20369;-84
2023/04/18 10:35:05;;;;;;;;;;;;;;;21.32;nan;102895.63;4983419;28;20422;-85
2023/04/18 10:37:31;;;;;;;;;;;;;;;21.27;nan;102888.25;4977792;28;20113;-84
2023/04/18 10:39:58;;;;;;;;;;;;;;;21.26;nan;102886.63;4976348;28;19926;-84
2023/04/18 10:42:43;;;;;;;;;;;;;;;21.31;nan;102891.25;4976454;28;20159;-84
2023/04/18 10:45:19;;;;;;;;;;;;;;;21.38;nan;102889.94;4977291;28;19918;-84
2023/04/18 10:47:44;;;;;;;;;;;;;;;21.44;nan;102895.41;4976653;28;20397;-85
2023/04/18 10:50:10;;;;;;;;;;;;;;;21.46;nan;102899.50;4979057;28;19924;-85
2023/04/18 10:52:36;;;;;;;;;;;;;;;21.47;nan;102892.13;4976396;28;19922;-85
2023/04/18 10:55:07;;;;;;;;;;;;;;;21.46;nan;102895.94;4976452;28;20292;-85
2023/04/18 10:57:36;;;;;;;;;;;;;;;21.49;nan;102896.22;4978424;28;19922;-85
2023/04/18 11:00:03;;;;;;;;;;;;;;;21.56;nan;102895.97;4979007;28;20350;-85
2023/04/18 11:02:29;;;;;;;;;;;;;;;21.60;nan;102889.72;4977926;28;20057;-85
2023/04/18 11:04:56;;;;;;;;;;;;;;;21.74;nan;102892.72;4978281;28;19929;-84
2023/04/18 11:07:36;;;;;;;;;;;;;;;21.86;nan;102885.06;4979349;28;19940;-85
2023/04/18 11:10:03;;;;;;;;;;;;;;;21.98;nan;102874.72;4975931;28;20024;-85
2023/04/18 11:12:32;;;;;;;;;;;;;;;22.17;nan;102879.66;4981020;28;19925;-85
2023/04/18 11:14:58;;;;;;;;;;;;;;;22.30;nan;102873.63;4980857;28;19918;-84
2023/04/18 11:17:27;;;;;;;;;;;;;;;22.41;nan;102875.22;4976907;28;19941;-85
2023/04/18 11:20:08;;;;;;;;;;;;;;;22.48;nan;102875.78;4978538;28;20047;-85
2023/04/18 11:23:11;;;;;;;;;;;;;;;22.52;nan;102879.59;4978724;28;19926;-84
2023/04/18 11:25:39;;;;;;;;;;;;;;;22.53;nan;102866.75;5003202;28;19925;-84
2023/04/18 11:28:05;;;;;;;;;;;;;;;22.46;nan;102863.50;4999642;28;19924;-85
2023/04/18 11:30:36;;;;;;;;;;;;;;;22.38;nan;102856.66;4991068;28;19922;-84
2023/04/18 11:33:09;;;;;;;;;;;;;;;22.32;nan;102857.78;4977370;28;19922;-85
2023/04/18 11:35:36;;;;;;;;;;;;;;;22.31;nan;102853.41;4977975;28;20595;-85
2023/04/18 11:38:01;;;;;;;;;;;;;;;22.36;nan;102861.59;4980728;28;20425;-85
2023/04/18 11:40:26;;;;;;;;;;;;;;;22.40;nan;102853.66;4978992;28;19926;-85
2023/04/18 11:42:53;;;;;;;;;;;;;;;22.42;nan;102865.13;4974596;28;20488;-84
2023/04/18 11:45:18;;;;;;;;;;;;;;;22.43;nan;102850.38;4979594;28;19927;-85
2023/04/18 11:47:45;;;;;;;;;;;;;;;22.44;nan;102861.03;4975465;28;19926;-85
2023/04/18 11:50:11;;;;;;;;;;;;;;;22.44;nan;102858.31;4978766;28;19926;-84
2023/04/18 11:52:38;;;;;;;;;;;;;;;22.44;nan;102855.59;4977475;28;19918;-85
2023/04/18 11:55:13;;;;;;;;;;;;;;;22.42;nan;102852.28;4976517;28;19922;-85
2023/04/18 11:57:38;;;;;;;;;;;;;;;22.41;nan;102852.56;4977724;28;19977;-86
2023/04/18 12:00:06;;;;;;;;;;;;;;;22.35;nan;102859.16;4980555;28;20388;-85
2023/04/18 12:02:37;;;;;;;;;;;;;;;22.30;nan;102859.97;4982730;28;19928;-84
2023/04/18 12:05:03;;;;;;;;;;;;;;;22.31;nan;102858.88;4982027;28;20437;-85
2023/04/18 12:07:36;;;;;;;;;;;;;;;22.35;nan;102868.16;4979149;28;20442;-85
2023/04/18 12:10:06;;;;;;;;;;;;;;;22.41;nan;102855.28;4981165;28;19961;-85
2023/04/18 12:12:32;;;;;;;;;;;;;;;22.42;nan;102851.47;4982972;28;20459;-86
2023/04/18 12:15:07;;;;;;;;;;;;;;;22.39;nan;102858.31;4982956;28;20000;-85
2023/04/18 12:17:32;;;;;;;;;;;;;;;22.39;nan;102861.03;4984248;28;19992;-85
2023/04/18 12:20:02;;;;;;;;;;;;;;;22.44;nan;102849.28;4981016;28;20065;-85
2023/04/18 12:22:41;;;;;;;;;;;;;;;22.54;nan;102852.00;4982122;28;20217;-85
2023/04/18 12:25:08;;;;;;;;;;;;;;;22.59;nan;102843.78;4977745;28;19926;-85
2023/04/18 12:27:52;;;;;;;;;;;;;;;22.65;nan;102847.31;4976881;28;19922;-85
2023/04/18 12:30:21;;;;;;;;;;;;;;;22.66;nan;102848.97;4981957;28;19929;-84
2023/04/18 12:33:02;;;;;;;;;;;;;;;22.65;nan;102850.88;4979551;28;20446;-85
2023/04/18 12:35:29;;;;;;;;;;;;;;;22.65;nan;102845.41;4982669;28;19972;-83
2023/04/18 12:37:55;;;;;;;;;;;;;;;22.61;nan;102838.84;4978563;28;19922;-85
2023/04/18 12:40:21;;;;;;;;;;;;;;;22.56;nan;102842.41;4980620;28;19925;-85
2023/04/18 12:42:47;;;;;;;;;;;;;;;22.54;nan;102836.41;4976277;28;19926;-85
2023/04/18 12:45:14;;;;;;;;;;;;;;;22.51;nan;102836.97;4976626;28;19976;-85
2023/04/18 12:47:40;;;;;;;;;;;;;;;22.47;nan;102835.91;4976031;28;19922;-85
2023/04/18 12:50:07;;;;;;;;;;;;;;;22.47;nan;102833.19;4980520;28;19953;-86
2023/04/18 12:52:32;;;;;;;;;;;;;;;22.42;nan;102838.63;4985882;28;19922;-85
2023/04/18 12:54:58;;;;;;;;;;;;;;;22.38;nan;102834.00;4978635;28;19928;-85
2023/04/18 12:57:24;;;;;;;;;;;;;;;22.37;nan;102841.38;4981009;28;20383;-84
2023/04/18 12:59:49;;;;;;;;;;;;;;;;;;4981294;28;20385;-85
2023/04/18 13:02:15;;;;;;;;;;;;;;;;;;4981932;28;19926;-85
2023/04/18 13:04:40;;;;;;;;;;;;;;;22.34;nan;102836.47;4980011;28;20424;-85
2023/04/18 13:07:06;;;;;;;;;;;;;;;22.33;nan;102836.75;4974327;28;19988;-84
2023/04/18 13:09:31;;;;;;;;;;;;;;;22.28;nan;102826.66;4975975;28;20487;-84
2023/04/18 13:11:57;;;;;;;;;;;;;;;22.28;nan;102824.75;4976472;28;19922;-85
2023/04/18 13:14:22;;;;;;;;;;;;;;;22.30;nan;102824.47;4976139;28;19948;-86
2023/04/18 13:16:48;;;;;;;;;;;;;;;22.36;nan;102828.00;4978246;28;19961;-86
2023/04/18 13:19:13;;;;;;;;;;;;;;;22.45;nan;102829.91;4976866;28;19925;-85
2023/04/18 13:21:38;;;;;;;;;;;;;;;22.52;nan;102833.16;4976674;28;19932;-86
2023/04/18 13:24:04;;;;;;;;;;;;;;;22.58;nan;102828.47;4980354;28;20246;-86
2023/04/18 13:26:34;;;;;;;;;;;;;;;22.63;nan;102828.47;4976717;28;20360;-85
2023/04/18 13:28:59;;;;;;;;;;;;;;;22.67;nan;102828.72;4979441;28;19957;-86
2023/04/18 13:31:25;;;;;;;;;;;;;;;22.72;nan;102821.31;4982338;28;20380;-85
2023/04/18 13:33:50;;;;;;;;;;;;;;;22.75;nan;102819.94;4977343;28;19926;-86
2023/04/18 13:36:16;;;;;;;;;;;;;;;22.75;nan;102817.22;4978721;28;19921;-85
2023/04/18 13:38:42;;;;;;;;;;;;;;;22.79;nan;102818.28;4980265;28;20403;-85
2023/04/18 13:41:07;;;;;;;;;;;;;;;22.85;nan;102811.75;4978631;28;20016;-85
2023/04/18 13:43:32;;;;;;;;;;;;;;;22.96;nan;102821.50;4980313;28;21255;-84
2023/04/18 13:45:58;;;;;;;;;;;;;;;23.14;nan;102812.66;4978265;28;19926;-85
2023/04/18 13:48:23;;;;;;;;;;;;;;;23.41;nan;102812.19;4979285;28;19964;-86
2023/04/18 13:50:49;;;;;;;;;;;;;;;23.59;nan;102801.69;4983047;28;19917;-86
2023/04/18 13:53:16;;;;;;;;;;;;;;;23.69;nan;102813.38;4980191;28;19995;-86
2023/04/18 13:55:42;;;;;;;;;;;;;;;23.76;nan;102800.19;4980227;28;19917;-87
2023/04/18 13:58:07;;;;;;;;;;;;;;;23.71;nan;102796.69;4977217;28;19922;-86
2023/04/18 14:00:32;;;;;;;;;;;;;;;23.71;nan;102805.72;4977421;28;19926;-85
2023/04/18 14:02:58;;;;;;;;;;;;;;;23.66;nan;102813.13;4976676;28;20004;-87
2023/04/18 14:05:23;;;;;;;;;;;;;;;23.59;nan;102807.19;4977409;28;20406;-86
2023/04/18 14:07:49;;;;;;;;;;;;;;;23.52;nan;102802.00;4982645;28;20292;-86
2023/04/18 14:10:14;;;;;;;;;;;;;;;23.46;nan;102814.06;4979223;28;19918;-86